createdAt,value
2023-01-29T00:00:25.087Z,89.54
2023-01-29T00:01:25.659Z,89.64
2023-01-29T00:02:25.180Z,89.64
2023-01-29T00:03:25.431Z,89.64
2023-01-29T00:04:26.847Z,89.64
2023-01-29T00:05:28.195Z,89.64
2023-01-29T00:06:25.780Z,89.75
2023-01-29T00:07:25.156Z,89.71
2023-01-29T00:08:25.610Z,89.71
2023-01-29T00:09:25.052Z,89.60
2023-01-29T00:10:25.469Z,89.50
2023-01-29T00:11:24.881Z,89.43
2023-01-29T00:12:25.347Z,89.32
2023-01-29T00:13:25.826Z,89.32
2023-01-29T00:14:25.225Z,89.32
2023-01-29T00:15:26.733Z,89.22
2023-01-29T00:16:25.996Z,89.01
2023-01-29T00:17:25.500Z,88.91
2023-01-29T00:18:24.930Z,88.91
2023-01-29T00:19:26.340Z,88.91
2023-01-29T00:20:24.765Z,89.01
2023-01-29T00:21:26.171Z,89.16
2023-01-29T00:22:26.610Z,89.16
2023-01-29T00:23:25.460Z,89.22
2023-01-29T00:24:25.543Z,89.43
2023-01-29T00:25:24.934Z,89.54
2023-01-29T00:26:25.334Z,89.75
2023-01-29T00:27:24.726Z,89.75
2023-01-29T00:28:25.196Z,89.86
2023-01-29T00:29:24.967Z,89.75
2023-01-29T00:30:25.086Z,89.69
2023-01-29T00:31:24.592Z,89.79
2023-01-29T00:32:24.954Z,89.79
2023-01-29T00:33:25.425Z,90.00
2023-01-29T00:34:24.880Z,90.00
2023-01-29T00:35:25.346Z,90.00
2023-01-29T00:36:24.674Z,90.00
2023-01-29T00:37:25.105Z,89.89
2023-01-29T00:38:24.603Z,89.79
2023-01-29T00:39:33.677Z,89.69
2023-01-29T00:40:25.453Z,89.69
2023-01-29T00:41:24.811Z,89.69
2023-01-29T00:42:26.220Z,89.79
2023-01-29T00:43:25.655Z,89.79
2023-01-29T00:44:26.106Z,89.89
2023-01-29T00:45:24.540Z,90.00
2023-01-29T00:46:25.008Z,90.11
2023-01-29T00:47:25.332Z,90.21
2023-01-29T00:48:25.913Z,90.21
2023-01-29T00:49:25.341Z,90.21
2023-01-29T00:50:24.685Z,90.11
2023-01-29T00:51:25.132Z,90.00
2023-01-29T00:52:24.553Z,89.89
2023-01-29T00:53:24.943Z,89.89
2023-01-29T00:54:24.341Z,89.83
2023-01-29T00:55:24.793Z,89.83
2023-01-29T00:56:25.210Z,89.83
2023-01-29T00:57:24.623Z,89.94
2023-01-29T00:58:25.040Z,89.94
2023-01-29T00:59:25.504Z,90.04
2023-01-29T01:00:25.845Z,90.04
2023-01-29T01:01:25.206Z,90.14
2023-01-29T01:02:24.821Z,90.25
2023-01-29T01:03:25.101Z,90.25
2023-01-29T01:04:26.517Z,90.25
2023-01-29T01:05:25.921Z,90.25
2023-01-29T01:06:24.335Z,90.25
2023-01-29T01:07:24.809Z,90.25
2023-01-29T01:08:24.193Z,90.25
2023-01-29T01:09:24.615Z,90.25
2023-01-29T01:10:24.026Z,90.25
2023-01-29T01:11:24.486Z,90.25
2023-01-29T01:12:24.960Z,90.11
2023-01-29T01:13:24.384Z,90.14
2023-01-29T01:14:24.821Z,90.11
2023-01-29T01:15:24.203Z,90.11
2023-01-29T01:16:24.722Z,90.11
2023-01-29T01:17:24.126Z,90.21
2023-01-29T01:18:24.550Z,90.21
2023-01-29T01:19:23.957Z,90.21
2023-01-29T01:20:24.409Z,90.31
2023-01-29T01:21:24.824Z,90.31
2023-01-29T01:22:24.251Z,90.21
2023-01-29T01:23:24.746Z,90.00
2023-01-29T01:24:25.062Z,89.89
2023-01-29T01:25:24.582Z,89.79
2023-01-29T01:26:24.937Z,89.69
2023-01-29T01:27:25.417Z,89.58
2023-01-29T01:28:24.827Z,89.58
2023-01-29T01:29:24.311Z,89.58
2023-01-29T01:30:24.771Z,89.58
2023-01-29T01:31:24.317Z,89.58
2023-01-29T01:32:24.612Z,89.47
2023-01-29T01:33:24.004Z,89.47
2023-01-29T01:34:24.701Z,89.62
2023-01-29T01:35:23.878Z,89.72
2023-01-29T01:36:24.276Z,89.83
2023-01-29T01:37:23.737Z,89.94
2023-01-29T01:38:24.170Z,90.04
2023-01-29T01:39:24.630Z,90.11
2023-01-29T01:40:24.115Z,90.11
2023-01-29T01:41:24.506Z,90.11
2023-01-29T01:42:24.871Z,90.11
2023-01-29T01:43:25.341Z,90.00
2023-01-29T01:44:23.770Z,89.89
2023-01-29T01:45:24.226Z,89.79
2023-01-29T01:46:23.675Z,89.79
2023-01-29T01:47:24.100Z,89.79
2023-01-29T01:48:25.571Z,89.79
2023-01-29T01:49:23.945Z,89.89
2023-01-29T01:50:24.456Z,89.89
2023-01-29T01:51:23.826Z,90.00
2023-01-29T01:52:24.298Z,90.00
2023-01-29T01:53:24.660Z,90.00
2023-01-29T01:54:25.105Z,90.00
2023-01-29T01:55:23.583Z,90.00
2023-01-29T01:56:24.191Z,90.00
2023-01-29T01:57:24.402Z,90.00
2023-01-29T01:58:24.860Z,89.89
2023-01-29T01:59:25.280Z,89.89
2023-01-29T02:00:24.690Z,90.00
2023-01-29T02:01:25.842Z,90.00
2023-01-29T02:02:23.622Z,89.89
2023-01-29T02:03:24.080Z,89.79
2023-01-29T02:04:23.471Z,89.83
2023-01-29T02:05:23.914Z,89.72
2023-01-29T02:06:24.268Z,89.72
2023-01-29T02:07:23.766Z,89.72
2023-01-29T02:08:24.155Z,89.72
2023-01-29T02:09:24.536Z,89.83
2023-01-29T02:10:24.963Z,89.94
2023-01-29T02:11:23.381Z,90.04
2023-01-29T02:12:23.835Z,90.25
2023-01-29T02:13:23.299Z,90.36
2023-01-29T02:14:23.712Z,90.36
2023-01-29T02:15:24.115Z,90.46
2023-01-29T02:16:23.530Z,90.56
2023-01-29T02:17:25.013Z,90.56
2023-01-29T02:18:23.396Z,90.46
2023-01-29T02:19:24.804Z,90.46
2023-01-29T02:20:24.209Z,90.36
2023-01-29T02:21:23.673Z,90.25
2023-01-29T02:22:24.114Z,90.14
2023-01-29T02:23:23.582Z,90.14
2023-01-29T02:24:24.054Z,90.04
2023-01-29T02:25:23.392Z,89.94
2023-01-29T02:26:23.821Z,89.94
2023-01-29T02:27:23.216Z,89.94
2023-01-29T02:28:24.675Z,90.04
2023-01-29T02:29:23.624Z,90.14
2023-01-29T02:30:24.516Z,90.14
2023-01-29T02:31:24.922Z,90.14
2023-01-29T02:32:24.314Z,90.14
2023-01-29T02:33:24.776Z,90.14
2023-01-29T02:34:24.190Z,90.04
2023-01-29T02:35:25.056Z,89.94
2023-01-29T02:36:23.125Z,89.94
2023-01-29T02:37:24.592Z,89.87
2023-01-29T02:38:23.032Z,89.87
2023-01-29T02:39:23.529Z,89.87
2023-01-29T02:40:22.991Z,89.87
2023-01-29T02:41:23.477Z,89.87
2023-01-29T02:42:22.840Z,89.87
2023-01-29T02:43:23.359Z,89.87
2023-01-29T02:44:23.790Z,89.76
2023-01-29T02:45:23.225Z,89.76
2023-01-29T02:46:23.705Z,89.87
2023-01-29T02:47:23.166Z,89.87
2023-01-29T02:48:23.620Z,89.98
2023-01-29T02:49:23.075Z,90.08
2023-01-29T02:50:23.512Z,90.08
2023-01-29T02:51:22.935Z,90.08
2023-01-29T02:52:23.585Z,90.19
2023-01-29T02:53:22.860Z,90.08
2023-01-29T02:54:23.335Z,90.19
2023-01-29T02:55:22.783Z,90.19
2023-01-29T02:56:23.279Z,90.29
2023-01-29T02:57:22.677Z,90.40
2023-01-29T02:58:23.336Z,90.40
2023-01-29T02:59:23.658Z,90.50
2023-01-29T03:00:23.070Z,90.61
2023-01-29T03:01:23.654Z,90.82
2023-01-29T03:02:23.005Z,90.82
2023-01-29T03:03:23.497Z,90.82
2023-01-29T03:04:23.837Z,90.82
2023-01-29T03:05:24.296Z,90.92
2023-01-29T03:06:23.776Z,91.03
2023-01-29T03:07:23.291Z,91.24
2023-01-29T03:08:22.705Z,91.13
2023-01-29T03:09:23.304Z,91.09
2023-01-29T03:10:22.625Z,91.09
2023-01-29T03:11:23.116Z,91.09
2023-01-29T03:12:22.565Z,91.20
2023-01-29T03:13:23.059Z,91.30
2023-01-29T03:14:22.486Z,91.30
2023-01-29T03:15:23.031Z,91.20
2023-01-29T03:16:22.463Z,90.88
2023-01-29T03:17:22.883Z,90.56
2023-01-29T03:18:23.376Z,90.25
2023-01-29T03:19:22.832Z,90.19
2023-01-29T03:20:23.306Z,90.08
2023-01-29T03:21:22.749Z,89.98
2023-01-29T03:22:23.228Z,89.87
2023-01-29T03:23:23.618Z,89.76
2023-01-29T03:24:23.150Z,89.56
2023-01-29T03:25:22.430Z,89.56
2023-01-29T03:26:23.201Z,89.76
2023-01-29T03:27:22.379Z,89.87
2023-01-29T03:28:22.815Z,89.98
2023-01-29T03:29:22.295Z,89.98
2023-01-29T03:30:22.710Z,89.98
2023-01-29T03:31:23.378Z,89.98
2023-01-29T03:32:22.614Z,89.98
2023-01-29T03:33:23.110Z,90.19
2023-01-29T03:34:22.499Z,90.36
2023-01-29T03:35:22.981Z,90.50
2023-01-29T03:36:22.408Z,90.46
2023-01-29T03:37:23.051Z,90.46
2023-01-29T03:38:22.231Z,90.46
2023-01-29T03:39:22.691Z,90.56
2023-01-29T03:40:23.039Z,90.78
2023-01-29T03:41:23.557Z,90.88
2023-01-29T03:42:23.081Z,90.99
2023-01-29T03:43:22.526Z,90.99
2023-01-29T03:44:22.977Z,90.63
2023-01-29T03:45:22.386Z,90.42
2023-01-29T03:46:22.834Z,90.21
2023-01-29T03:47:22.259Z,90.00
2023-01-29T03:48:22.810Z,89.94
2023-01-29T03:49:22.120Z,89.72
2023-01-29T03:50:22.605Z,89.72
2023-01-29T03:51:22.081Z,89.72
2023-01-29T03:52:22.549Z,89.72
2023-01-29T03:53:22.010Z,89.72
2023-01-29T03:54:22.504Z,89.72
2023-01-29T03:55:22.960Z,89.72
2023-01-29T03:56:23.294Z,89.72
2023-01-29T03:57:22.790Z,89.72
2023-01-29T03:58:23.180Z,89.72
2023-01-29T03:59:22.708Z,89.87
2023-01-29T04:00:22.133Z,89.98
2023-01-29T04:01:22.603Z,90.23
2023-01-29T04:02:22.966Z,90.55
2023-01-29T04:03:22.502Z,90.65
2023-01-29T04:04:22.982Z,90.65
2023-01-29T04:05:22.444Z,90.75
2023-01-29T04:06:22.899Z,90.75
2023-01-29T04:07:22.279Z,90.80
2023-01-29T04:08:22.731Z,90.90
2023-01-29T04:09:22.210Z,91.11
2023-01-29T04:10:22.615Z,91.11
2023-01-29T04:11:22.033Z,91.11
2023-01-29T04:12:22.490Z,91.22
2023-01-29T04:13:21.900Z,91.22
2023-01-29T04:14:22.336Z,91.32
2023-01-29T04:15:21.752Z,91.32
2023-01-29T04:16:22.322Z,91.22
2023-01-29T04:17:21.650Z,91.32
2023-01-29T04:18:22.120Z,91.32
2023-01-29T04:19:22.652Z,91.42
2023-01-29T04:20:22.002Z,91.42
2023-01-29T04:21:22.652Z,91.42
2023-01-29T04:22:22.184Z,91.53
2023-01-29T04:23:22.675Z,91.60
2023-01-29T04:24:22.174Z,91.53
2023-01-29T04:25:21.570Z,91.64
2023-01-29T04:26:22.073Z,91.70
2023-01-29T04:27:22.679Z,91.70
2023-01-29T04:28:22.855Z,91.70
2023-01-29T04:29:22.336Z,91.70
2023-01-29T04:30:21.595Z,91.81
2023-01-29T04:31:22.212Z,91.81
2023-01-29T04:32:21.471Z,91.81
2023-01-29T04:33:22.006Z,92.02
2023-01-29T04:34:22.449Z,92.12
2023-01-29T04:35:21.841Z,92.33
2023-01-29T04:36:22.304Z,92.76
2023-01-29T04:37:22.691Z,93.03
2023-01-29T04:38:22.200Z,93.24
2023-01-29T04:39:21.645Z,93.34
2023-01-29T04:40:22.100Z,93.45
2023-01-29T04:41:21.523Z,93.66
2023-01-29T04:42:21.981Z,93.76
2023-01-29T04:43:21.420Z,93.76
2023-01-29T04:44:22.135Z,93.87
2023-01-29T04:45:21.329Z,93.83
2023-01-29T04:46:21.792Z,93.66
2023-01-29T04:47:22.348Z,93.66
2023-01-29T04:48:21.673Z,93.62
2023-01-29T04:49:22.180Z,93.51
2023-01-29T04:50:21.599Z,93.55
2023-01-29T04:51:22.075Z,93.72
2023-01-29T04:52:21.474Z,93.62
2023-01-29T04:53:21.945Z,93.51
2023-01-29T04:54:21.359Z,93.57
2023-01-29T04:55:21.880Z,93.26
2023-01-29T04:56:21.240Z,93.15
2023-01-29T04:57:21.664Z,92.88
2023-01-29T04:58:22.138Z,92.57
2023-01-29T04:59:21.519Z,92.25
2023-01-29T05:00:22.000Z,91.93
2023-01-29T05:01:21.414Z,91.72
2023-01-29T05:02:21.820Z,91.72
2023-01-29T05:03:21.214Z,91.77
2023-01-29T05:04:21.659Z,91.87
2023-01-29T05:05:21.072Z,91.97
2023-01-29T05:06:21.570Z,91.97
2023-01-29T05:07:21.981Z,91.97
2023-01-29T05:08:21.415Z,91.97
2023-01-29T05:09:22.864Z,91.97
2023-01-29T05:10:22.225Z,92.08
2023-01-29T05:11:21.802Z,92.08
2023-01-29T05:12:21.185Z,92.19
2023-01-29T05:13:22.587Z,92.19
2023-01-29T05:14:22.000Z,92.08
2023-01-29T05:15:22.475Z,92.29
2023-01-29T05:16:20.997Z,92.19
2023-01-29T05:17:21.478Z,92.19
2023-01-29T05:18:21.877Z,92.25
2023-01-29T05:19:21.331Z,92.25
2023-01-29T05:20:22.714Z,92.14
2023-01-29T05:21:21.185Z,92.25
2023-01-29T05:22:21.644Z,92.25
2023-01-29T05:23:21.029Z,92.14
2023-01-29T05:24:21.631Z,92.14
2023-01-29T05:25:20.943Z,92.04
2023-01-29T05:26:22.275Z,92.14
2023-01-29T05:27:22.752Z,92.25
2023-01-29T05:28:21.475Z,92.46
2023-01-29T05:29:21.645Z,92.46
2023-01-29T05:30:21.023Z,92.46
2023-01-29T05:31:21.577Z,92.35
2023-01-29T05:32:20.912Z,92.25
2023-01-29T05:33:21.308Z,92.19
2023-01-29T05:34:20.795Z,92.14
2023-01-29T05:35:21.259Z,92.19
2023-01-29T05:36:21.626Z,92.19
2023-01-29T05:37:22.017Z,92.19
2023-01-29T05:38:21.455Z,92.29
2023-01-29T05:39:20.885Z,92.29
2023-01-29T05:40:21.407Z,92.50
2023-01-29T05:41:20.746Z,92.71
2023-01-29T05:42:21.179Z,92.92
2023-01-29T05:43:20.598Z,93.24
2023-01-29T05:44:21.038Z,93.34
2023-01-29T05:45:21.495Z,93.34
2023-01-29T05:46:20.914Z,93.34
2023-01-29T05:47:22.309Z,93.62
2023-01-29T05:48:20.784Z,93.83
2023-01-29T05:49:22.144Z,93.83
2023-01-29T05:50:21.556Z,93.79
2023-01-29T05:51:21.112Z,93.68
2023-01-29T05:52:21.418Z,93.57
2023-01-29T05:53:21.877Z,93.47
2023-01-29T05:54:22.306Z,93.37
2023-01-29T05:55:20.810Z,93.22
2023-01-29T05:56:21.228Z,93.15
2023-01-29T05:57:20.615Z,93.05
2023-01-29T05:58:21.110Z,92.94
2023-01-29T05:59:20.465Z,92.94
2023-01-29T06:00:21.860Z,92.94
2023-01-29T06:01:21.575Z,92.94
2023-01-29T06:02:21.720Z,93.05
2023-01-29T06:03:21.243Z,93.22
2023-01-29T06:04:20.635Z,93.32
2023-01-29T06:05:21.989Z,93.22
2023-01-29T06:06:21.421Z,93.11
2023-01-29T06:07:21.121Z,93.01
2023-01-29T06:08:21.225Z,93.01
2023-01-29T06:09:21.748Z,92.90
2023-01-29T06:10:22.184Z,92.69
2023-01-29T06:11:20.731Z,92.48
2023-01-29T06:12:21.130Z,92.38
2023-01-29T06:13:22.185Z,92.27
2023-01-29T06:14:22.014Z,92.38
2023-01-29T06:15:21.460Z,92.48
2023-01-29T06:16:21.110Z,92.58
2023-01-29T06:17:20.476Z,92.69
2023-01-29T06:18:20.931Z,92.58
2023-01-29T06:19:20.375Z,92.48
2023-01-29T06:20:20.915Z,92.38
2023-01-29T06:21:20.330Z,92.38
2023-01-29T06:22:20.875Z,92.16
2023-01-29T06:23:20.221Z,92.06
2023-01-29T06:24:20.783Z,92.38
2023-01-29T06:25:20.260Z,92.38
2023-01-29T06:26:20.696Z,92.27
2023-01-29T06:27:20.116Z,92.27
2023-01-29T06:28:20.620Z,92.12
2023-01-29T06:29:20.061Z,92.06
2023-01-29T06:30:20.819Z,92.06
2023-01-29T06:31:36.712Z,92.06
2023-01-29T06:32:21.470Z,92.06
2023-01-29T06:33:20.923Z,92.06
2023-01-29T06:34:20.394Z,92.16
2023-01-29T06:35:20.895Z,92.16
2023-01-29T06:36:20.334Z,92.16
2023-01-29T06:37:21.822Z,92.12
2023-01-29T06:38:20.220Z,92.02
2023-01-29T06:39:20.710Z,91.81
2023-01-29T06:40:20.187Z,91.71
2023-01-29T06:41:20.904Z,91.60
2023-01-29T06:42:20.033Z,91.49
2023-01-29T06:43:20.475Z,91.49
2023-01-29T06:44:19.902Z,91.60
2023-01-29T06:45:20.409Z,91.49
2023-01-29T06:46:19.800Z,91.49
2023-01-29T06:47:21.375Z,91.49
2023-01-29T06:48:21.686Z,91.39
2023-01-29T06:49:21.217Z,91.24
2023-01-29T06:50:21.602Z,91.24
2023-01-29T06:51:21.021Z,91.03
2023-01-29T06:52:20.608Z,91.03
2023-01-29T06:53:19.990Z,90.92
2023-01-29T06:54:21.381Z,91.03
2023-01-29T06:55:19.921Z,90.92
2023-01-29T06:56:21.305Z,90.82
2023-01-29T06:57:20.745Z,90.72
2023-01-29T06:58:20.300Z,90.76
2023-01-29T06:59:20.644Z,90.86
2023-01-29T07:00:20.150Z,90.97
2023-01-29T07:01:35.293Z,91.07
2023-01-29T07:02:21.174Z,91.07
2023-01-29T07:03:21.444Z,90.97
2023-01-29T07:04:19.932Z,91.07
2023-01-29T07:05:20.383Z,91.07
2023-01-29T07:06:19.933Z,91.18
2023-01-29T07:07:20.333Z,91.18
2023-01-29T07:08:19.690Z,91.07
2023-01-29T07:09:21.126Z,90.97
2023-01-29T07:10:19.691Z,90.66
2023-01-29T07:11:20.995Z,90.69
2023-01-29T07:12:20.411Z,90.80
2023-01-29T07:13:19.914Z,90.80
2023-01-29T07:14:20.463Z,90.80
2023-01-29T07:15:20.755Z,91.01
2023-01-29T07:16:20.323Z,91.11
2023-01-29T07:17:20.667Z,91.22
2023-01-29T07:18:21.106Z,91.33
2023-01-29T07:19:19.580Z,91.33
2023-01-29T07:20:20.160Z,91.43
2023-01-29T07:21:20.420Z,91.43
2023-01-29T07:22:20.860Z,91.43
2023-01-29T07:23:20.291Z,91.43
2023-01-29T07:24:20.820Z,91.43
2023-01-29T07:25:20.287Z,91.43
2023-01-29T07:26:19.644Z,91.18
2023-01-29T07:27:20.091Z,91.01
2023-01-29T07:28:20.478Z,91.11
2023-01-29T07:29:20.925Z,91.11
2023-01-29T07:30:20.335Z,91.11
2023-01-29T07:31:20.205Z,91.22
2023-01-29T07:32:20.272Z,91.43
2023-01-29T07:33:19.718Z,91.58
2023-01-29T07:34:21.146Z,91.78
2023-01-29T07:35:19.591Z,91.74
2023-01-29T07:36:20.295Z,91.68
2023-01-29T07:37:19.508Z,91.58
2023-01-29T07:38:21.970Z,91.58
2023-01-29T07:39:19.426Z,91.58
2023-01-29T07:40:20.830Z,91.68
2023-01-29T07:41:20.272Z,91.78
2023-01-29T07:42:19.837Z,91.89
2023-01-29T07:43:20.171Z,91.78
2023-01-29T07:44:20.626Z,91.68
2023-01-29T07:45:19.974Z,91.68
2023-01-29T07:46:19.575Z,91.68
2023-01-29T07:47:20.051Z,91.68
2023-01-29T07:48:19.549Z,91.58
2023-01-29T07:49:20.881Z,91.53
2023-01-29T07:50:20.300Z,91.43
2023-01-29T07:51:19.841Z,91.33
2023-01-29T07:52:21.329Z,91.22
2023-01-29T07:53:19.783Z,91.22
2023-01-29T07:54:20.090Z,91.22
2023-01-29T07:55:19.598Z,91.22
2023-01-29T07:56:20.015Z,91.22
2023-01-29T07:57:20.462Z,91.22
2023-01-29T07:58:19.880Z,91.22
2023-01-29T07:59:20.400Z,91.33
2023-01-29T08:00:19.834Z,91.43
2023-01-29T08:01:20.337Z,91.64
2023-01-29T08:02:20.782Z,91.81
2023-01-29T08:03:20.216Z,91.91
2023-01-29T08:04:20.713Z,92.02
2023-01-29T08:05:20.096Z,92.33
2023-01-29T08:06:20.562Z,92.54
2023-01-29T08:07:19.985Z,92.65
2023-01-29T08:08:20.476Z,92.65
2023-01-29T08:09:19.915Z,92.76
2023-01-29T08:10:20.554Z,92.76
2023-01-29T08:11:19.832Z,93.07
2023-01-29T08:12:20.310Z,93.18
2023-01-29T08:13:19.735Z,93.24
2023-01-29T08:14:20.235Z,93.24
2023-01-29T08:15:18.700Z,93.34
2023-01-29T08:16:20.351Z,93.24
2023-01-29T08:17:18.630Z,93.24
2023-01-29T08:18:19.105Z,93.13
2023-01-29T08:19:19.626Z,93.13
2023-01-29T08:20:19.365Z,92.88
2023-01-29T08:21:20.478Z,92.57
2023-01-29T08:22:19.878Z,92.35
2023-01-29T08:23:19.389Z,92.14
2023-01-29T08:24:19.792Z,91.79
2023-01-29T08:25:20.227Z,91.37
2023-01-29T08:26:19.660Z,91.27
2023-01-29T08:27:20.180Z,91.05
2023-01-29T08:28:19.565Z,90.80
2023-01-29T08:29:20.040Z,90.59
2023-01-29T08:30:19.446Z,90.38
2023-01-29T08:31:18.975Z,90.17
2023-01-29T08:32:20.637Z,89.97
2023-01-29T08:33:29.679Z,89.86
2023-01-29T08:34:20.339Z,89.97
2023-01-29T08:35:20.142Z,89.86
2023-01-29T08:36:20.136Z,89.75
2023-01-29T08:37:19.555Z,89.86
2023-01-29T08:38:20.005Z,89.86
2023-01-29T08:39:19.424Z,89.75
2023-01-29T08:40:20.171Z,89.75
2023-01-29T08:41:19.294Z,89.75
2023-01-29T08:42:19.747Z,89.12
2023-01-29T08:43:20.205Z,88.71
2023-01-29T08:44:19.656Z,88.39
2023-01-29T08:45:20.047Z,88.18
2023-01-29T08:46:19.475Z,87.66
2023-01-29T08:47:19.902Z,87.66
2023-01-29T08:48:19.310Z,87.93
2023-01-29T08:49:18.885Z,88.24
2023-01-29T08:50:19.662Z,88.04
2023-01-29T08:51:19.625Z,87.51
2023-01-29T08:52:20.036Z,87.41
2023-01-29T08:53:19.441Z,87.62
2023-01-29T08:54:18.940Z,87.72
2023-01-29T08:55:19.557Z,87.83
2023-01-29T08:56:19.730Z,87.62
2023-01-29T08:57:19.168Z,87.41
2023-01-29T08:58:19.621Z,87.51
2023-01-29T08:59:18.068Z,87.30
2023-01-29T09:00:19.545Z,87.20
2023-01-29T09:01:19.038Z,87.30
2023-01-29T09:02:19.416Z,87.30
2023-01-29T09:03:20.444Z,87.41
2023-01-29T09:04:20.205Z,87.41
2023-01-29T09:05:20.110Z,87.62
2023-01-29T09:06:19.016Z,87.58
2023-01-29T09:07:19.506Z,87.47
2023-01-29T09:08:17.961Z,86.95
2023-01-29T09:09:18.397Z,86.53
2023-01-29T09:10:19.795Z,86.74
2023-01-29T09:11:18.289Z,87.09
2023-01-29T09:12:18.742Z,86.99
2023-01-29T09:13:18.135Z,86.99
2023-01-29T09:14:18.577Z,86.46
2023-01-29T09:15:18.373Z,85.94
2023-01-29T09:16:19.515Z,86.46
2023-01-29T09:17:18.861Z,86.78
2023-01-29T09:18:18.275Z,86.88
2023-01-29T09:19:19.707Z,86.99
2023-01-29T09:20:18.165Z,86.68
2023-01-29T09:21:18.600Z,85.83
2023-01-29T09:22:18.033Z,86.57
2023-01-29T09:23:19.376Z,86.88
2023-01-29T09:24:17.845Z,86.29
2023-01-29T09:25:19.431Z,86.92
2023-01-29T09:26:18.788Z,87.34
2023-01-29T09:27:18.225Z,87.41
2023-01-29T09:28:18.576Z,87.41
2023-01-29T09:29:18.916Z,87.09
2023-01-29T09:30:18.401Z,86.57
2023-01-29T09:31:18.076Z,86.68
2023-01-29T09:32:37.613Z,87.09
2023-01-29T09:33:19.799Z,87.20
2023-01-29T09:34:18.021Z,87.30
2023-01-29T09:35:18.764Z,87.72
2023-01-29T09:36:18.800Z,87.20
2023-01-29T09:37:21.019Z,87.30
2023-01-29T09:38:17.709Z,87.83
2023-01-29T09:39:18.260Z,87.83
2023-01-29T09:40:17.581Z,88.04
2023-01-29T09:41:18.019Z,87.83
2023-01-29T09:42:19.425Z,87.62
2023-01-29T09:43:18.812Z,87.41
2023-01-29T09:44:18.327Z,87.41
2023-01-29T09:45:17.977Z,87.30
2023-01-29T09:46:19.167Z,87.09
2023-01-29T09:47:18.532Z,86.78
2023-01-29T09:48:17.999Z,87.20
2023-01-29T09:49:19.372Z,87.09
2023-01-29T09:50:20.198Z,87.09
2023-01-29T09:51:19.240Z,86.88
2023-01-29T09:52:18.668Z,86.71
2023-01-29T09:53:19.039Z,87.03
2023-01-29T09:54:17.485Z,86.92
2023-01-29T09:55:18.349Z,86.61
2023-01-29T09:56:18.361Z,87.24
2023-01-29T09:57:18.720Z,87.45
2023-01-29T09:58:19.192Z,87.76
2023-01-29T09:59:18.595Z,87.13
2023-01-29T10:00:19.070Z,86.92
2023-01-29T10:01:18.557Z,87.24
2023-01-29T10:02:19.316Z,87.41
2023-01-29T10:03:17.391Z,87.20
2023-01-29T10:04:17.867Z,86.15
2023-01-29T10:05:17.645Z,86.05
2023-01-29T10:06:17.739Z,86.88
2023-01-29T10:07:18.164Z,87.09
2023-01-29T10:08:17.547Z,86.78
2023-01-29T10:09:17.969Z,86.68
2023-01-29T10:10:17.396Z,86.46
2023-01-29T10:11:17.860Z,87.09
2023-01-29T10:12:17.250Z,86.68
2023-01-29T10:13:17.690Z,86.99
2023-01-29T10:14:18.160Z,86.78
2023-01-29T10:15:17.932Z,86.74
2023-01-29T10:16:18.946Z,86.95
2023-01-29T10:17:17.502Z,86.74
2023-01-29T10:18:17.871Z,86.32
2023-01-29T10:19:18.178Z,86.07
2023-01-29T10:20:18.594Z,86.49
2023-01-29T10:21:17.010Z,86.28
2023-01-29T10:22:18.391Z,85.65
2023-01-29T10:23:18.851Z,85.65
2023-01-29T10:24:18.269Z,85.75
2023-01-29T10:25:19.135Z,85.61
2023-01-29T10:26:17.096Z,85.61
2023-01-29T10:27:17.511Z,85.41
2023-01-29T10:28:17.924Z,84.99
2023-01-29T10:29:18.300Z,85.19
2023-01-29T10:30:18.775Z,85.09
2023-01-29T10:31:18.279Z,85.19
2023-01-29T10:32:18.637Z,85.09
2023-01-29T10:33:17.281Z,84.78
2023-01-29T10:34:17.481Z,85.19
2023-01-29T10:35:18.182Z,85.61
2023-01-29T10:36:17.280Z,85.51
2023-01-29T10:37:17.733Z,85.51
2023-01-29T10:38:19.179Z,85.36
2023-01-29T10:39:17.537Z,85.16
2023-01-29T10:40:16.940Z,84.95
2023-01-29T10:41:18.340Z,84.95
2023-01-29T10:42:18.690Z,84.53
2023-01-29T10:43:17.142Z,84.63
2023-01-29T10:44:18.508Z,84.42
2023-01-29T10:45:18.468Z,84.53
2023-01-29T10:46:18.365Z,84.22
2023-01-29T10:47:17.725Z,83.90
2023-01-29T10:48:17.205Z,83.23
2023-01-29T10:49:18.533Z,82.71
2023-01-29T10:50:17.223Z,83.13
2023-01-29T10:51:18.340Z,83.23
2023-01-29T10:52:17.705Z,82.89
2023-01-29T10:53:18.907Z,82.36
2023-01-29T10:54:18.479Z,82.57
2023-01-29T10:55:18.214Z,82.53
2023-01-29T10:56:23.041Z,82.74
2023-01-29T10:57:17.674Z,82.43
2023-01-29T10:58:17.088Z,82.43
2023-01-29T10:59:17.524Z,82.64
2023-01-29T11:00:17.941Z,82.01
2023-01-29T11:01:18.324Z,81.56
2023-01-29T11:02:16.742Z,81.56
2023-01-29T11:03:26.933Z,81.87
2023-01-29T11:04:17.502Z,81.93
2023-01-29T11:05:17.121Z,81.13
2023-01-29T11:06:17.249Z,81.41
2023-01-29T11:07:17.555Z,81.41
2023-01-29T11:08:21.153Z,80.27
2023-01-29T11:09:17.375Z,80.37
2023-01-29T11:10:16.980Z,78.91
2023-01-29T11:11:17.132Z,78.80
2023-01-29T11:12:17.510Z,79.74
2023-01-29T11:13:16.964Z,80.27
2023-01-29T11:14:16.313Z,79.74
2023-01-29T11:15:16.725Z,79.74
2023-01-29T11:16:18.650Z,79.71
2023-01-29T11:17:16.659Z,79.60
2023-01-29T11:18:16.945Z,80.02
2023-01-29T11:19:17.290Z,78.80
2023-01-29T11:20:17.062Z,78.39
2023-01-29T11:21:17.145Z,79.01
2023-01-29T11:22:17.503Z,79.01
2023-01-29T11:23:16.980Z,78.80
2023-01-29T11:24:16.295Z,79.64
2023-01-29T11:25:17.723Z,79.81
2023-01-29T11:26:17.333Z,79.19
2023-01-29T11:27:16.679Z,78.14
2023-01-29T11:28:17.116Z,78.63
2023-01-29T11:29:16.250Z,78.21
2023-01-29T11:30:18.019Z,77.48
2023-01-29T11:31:17.126Z,77.27
2023-01-29T11:32:16.405Z,77.62
2023-01-29T11:33:16.820Z,77.00
2023-01-29T11:34:16.241Z,77.20
2023-01-29T11:35:16.637Z,77.72
2023-01-29T11:36:17.166Z,77.51
2023-01-29T11:37:16.393Z,78.77
2023-01-29T11:38:17.748Z,78.63
2023-01-29T11:39:16.179Z,78.11
2023-01-29T11:40:16.985Z,77.27
2023-01-29T11:41:17.945Z,78.49
2023-01-29T11:42:17.339Z,77.45
2023-01-29T11:43:16.827Z,76.51
2023-01-29T11:44:16.997Z,76.20
2023-01-29T11:45:16.596Z,75.88
2023-01-29T11:46:16.978Z,75.57
2023-01-29T11:47:17.306Z,76.26
2023-01-29T11:48:17.747Z,76.68
2023-01-29T11:49:20.838Z,75.57
2023-01-29T11:50:17.927Z,75.88
2023-01-29T11:51:16.916Z,76.92
2023-01-29T11:52:16.514Z,76.40
2023-01-29T11:53:16.786Z,76.20
2023-01-29T12:40:48.072Z,75.98
2023-01-29T12:40:54.231Z,75.88
2023-01-29T12:41:54.671Z,74.95
2023-01-29T12:42:54.043Z,73.80
2023-01-29T12:43:54.436Z,75.43
2023-01-29T12:44:53.782Z,75.64
2023-01-29T12:45:54.349Z,75.22
2023-01-29T12:46:54.749Z,75.01
2023-01-29T12:47:53.973Z,75.43
2023-01-29T12:48:54.362Z,75.01
2023-01-29T12:49:54.777Z,74.74
2023-01-29T12:50:54.255Z,75.15
2023-01-29T12:51:54.552Z,74.95
2023-01-29T12:52:53.920Z,75.05
2023-01-29T12:53:54.287Z,76.20
2023-01-29T12:54:53.672Z,75.98
2023-01-29T12:55:55.006Z,75.40
2023-01-29T12:56:54.454Z,76.43
2023-01-29T12:57:53.925Z,76.23
2023-01-29T12:58:55.174Z,76.33
2023-01-29T12:59:54.657Z,75.29
2023-01-29T13:00:54.423Z,75.09
2023-01-29T13:01:55.412Z,74.66
2023-01-29T13:02:53.772Z,74.87
2023-01-29T13:03:54.198Z,75.09
2023-01-29T13:04:54.573Z,75.40
2023-01-29T13:05:53.910Z,75.81
2023-01-29T13:06:54.346Z,75.50
2023-01-29T13:07:53.682Z,75.50
2023-01-29T13:08:54.077Z,75.57
2023-01-29T13:11:09.410Z,75.78
2023-01-29T13:12:07.965Z,74.21
2023-01-29T13:13:07.056Z,73.80
2023-01-29T13:14:09.589Z,74.01
2023-01-29T13:15:08.910Z,74.18
2023-01-29T13:16:09.481Z,73.66
2023-01-29T13:17:08.706Z,73.66
2023-01-29T13:18:07.986Z,73.25
2023-01-29T13:19:08.395Z,74.18
2023-01-29T13:20:07.784Z,73.56
2023-01-29T13:21:08.187Z,73.25
2023-01-29T13:22:08.576Z,72.31
2023-01-29T13:23:09.187Z,72.41
2023-01-29T13:24:08.356Z,72.93
2023-01-29T13:25:07.720Z,72.80
2023-01-29T13:26:09.175Z,73.11
2023-01-29T13:27:08.465Z,74.04
2023-01-29T13:28:08.830Z,74.11
2023-01-29T13:29:11.375Z,71.62
2023-01-29T13:30:09.640Z,70.89
2023-01-29T13:31:07.903Z,71.20
2023-01-29T13:32:09.226Z,72.34
2023-01-29T13:33:09.701Z,71.83
2023-01-29T13:34:08.000Z,72.45
2023-01-29T13:35:08.437Z,72.14
2023-01-29T13:36:08.756Z,72.76
2023-01-29T13:37:09.141Z,72.45
2023-01-29T13:38:08.491Z,72.55
2023-01-29T13:39:07.834Z,71.93